createdAt,value
2019-05-17T00:01:46.870Z,6.20
2019-05-17T00:06:48.801Z,6.10
2019-05-17T00:11:50.464Z,6.22
2019-05-17T00:16:52.263Z,5.70
2019-05-17T00:21:56.504Z,6.35
2019-05-17T00:26:58.593Z,6.03
2019-05-17T00:32:00.510Z,6.22
2019-05-17T00:37:02.265Z,6.62
2019-05-17T00:42:03.991Z,6.80
2019-05-17T00:47:06.703Z,6.53
2019-05-17T00:52:08.543Z,6.42
2019-05-17T00:57:10.311Z,6.80
2019-05-17T01:02:13.419Z,7.25
2019-05-17T01:07:17.553Z,7.15
2019-05-17T01:12:18.745Z,7.55
2019-05-17T01:17:20.417Z,7.60
2019-05-17T01:22:22.084Z,7.53
2019-05-17T01:27:23.787Z,6.80
2019-05-17T01:32:26.674Z,7.25
2019-05-17T01:37:28.491Z,7.45
2019-05-17T01:42:30.099Z,7.17
2019-05-17T01:47:32.527Z,8.00
2019-05-17T01:52:34.223Z,7.78
2019-05-17T01:57:36.961Z,8.25
2019-05-17T02:02:41.399Z,8.35
2019-05-17T02:07:43.130Z,7.80
2019-05-17T02:12:48.725Z,7.53
2019-05-17T02:17:48.355Z,7.75
2019-05-17T02:22:50.027Z,7.80
2019-05-17T02:27:52.295Z,8.45
2019-05-17T02:32:54.432Z,7.83
2019-05-17T02:37:56.366Z,7.17
2019-05-17T02:42:58.052Z,7.83
2019-05-17T02:48:03.269Z,7.37
2019-05-17T02:53:04.361Z,8.00
2019-05-17T02:58:06.639Z,7.80
2019-05-17T03:03:08.379Z,8.03
2019-05-17T03:08:12.338Z,7.25
2019-05-17T03:13:17.935Z,7.20
2019-05-17T03:18:17.822Z,7.25
2019-05-17T03:23:19.513Z,7.53
2019-05-17T03:28:23.569Z,8.00
2019-05-17T03:33:26.642Z,7.22
2019-05-17T03:38:28.636Z,7.35
2019-05-17T03:43:30.685Z,7.25
2019-05-17T03:48:33.525Z,8.20
2019-05-17T03:53:35.428Z,7.37
2019-05-17T03:58:37.175Z,7.97
2019-05-17T04:03:38.854Z,7.72
2019-05-17T04:08:42.519Z,7.92
2019-05-17T04:13:44.576Z,8.40
2019-05-17T04:18:46.277Z,8.35
2019-05-17T04:23:47.963Z,8.40
2019-05-17T04:28:52.978Z,8.10
2019-05-17T04:33:53.763Z,8.05
2019-05-17T04:38:55.603Z,7.95
2019-05-17T04:43:57.614Z,8.28
2019-05-17T04:49:02.681Z,7.95
2019-05-17T04:54:03.413Z,7.42
2019-05-17T04:59:05.267Z,8.55
2019-05-17T05:04:06.937Z,8.83
2019-05-17T05:09:08.636Z,7.95
2019-05-17T05:14:12.827Z,8.30
2019-05-17T05:19:13.779Z,8.70
2019-05-17T05:24:15.472Z,8.13
2019-05-17T05:29:17.142Z,8.70
2019-05-17T05:34:18.855Z,7.78
2019-05-17T05:39:22.703Z,8.15
2019-05-17T05:44:25.431Z,8.63
2019-05-17T05:49:27.202Z,8.00
2019-05-17T05:54:28.871Z,8.20
2019-05-17T05:59:31.697Z,8.40
2019-05-17T06:04:34.100Z,8.33
2019-05-17T06:09:35.799Z,8.58
2019-05-17T06:14:37.473Z,7.95
2019-05-17T06:19:39.256Z,7.83
2019-05-17T06:24:42.480Z,8.00
2019-05-17T06:29:46.292Z,7.75
2019-05-17T06:34:48.066Z,7.72
2019-05-17T06:39:49.695Z,8.25
2019-05-17T06:44:52.364Z,8.40
2019-05-17T06:49:54.260Z,7.80
2019-05-17T06:54:55.842Z,8.23
2019-05-17T06:59:59.315Z,8.25
2019-05-17T07:05:03.948Z,8.40
2019-05-17T07:10:05.675Z,8.33
2019-05-17T07:15:07.380Z,8.93
2019-05-17T07:20:10.304Z,9.25
2019-05-17T07:25:12.472Z,8.70
2019-05-17T07:30:14.564Z,9.70
2019-05-17T07:35:16.321Z,10.05
2019-05-17T07:40:19.834Z,9.95
2019-05-17T07:45:21.595Z,9.08
2019-05-17T07:50:26.105Z,11.15
2019-05-17T07:55:30.142Z,10.78
2019-05-17T08:00:31.477Z,10.20
2019-05-17T08:05:33.208Z,11.30
2019-05-17T08:10:35.008Z,11.53
2019-05-17T08:15:36.727Z,11.45
2019-05-17T08:20:40.182Z,11.53
2019-05-17T08:25:52.869Z,11.78
2019-05-17T08:30:46.745Z,12.00
2019-05-17T08:35:49.493Z,12.58
2019-05-17T08:40:51.216Z,13.20
2019-05-17T08:45:52.867Z,13.43
2019-05-17T08:50:54.768Z,13.30
2019-05-17T08:55:56.443Z,14.10
2019-05-17T09:01:00.256Z,13.40
2019-05-17T09:06:02.943Z,14.80
2019-05-17T09:11:05.125Z,15.35
2019-05-17T09:16:06.726Z,16.70
2019-05-17T09:21:09.749Z,16.23
2019-05-17T09:26:11.662Z,15.83
2019-05-17T09:31:13.452Z,15.28
2019-05-17T09:36:15.104Z,15.05
2019-05-17T09:41:16.906Z,16.55
2019-05-17T09:46:19.626Z,13.95
2019-05-17T09:51:21.470Z,14.53
2019-05-17T09:56:23.668Z,15.23
2019-05-17T10:01:25.467Z,15.70
2019-05-17T10:06:27.111Z,13.88
2019-05-17T10:11:30.773Z,14.35
2019-05-17T10:16:32.398Z,13.40
2019-05-17T10:21:34.085Z,13.68
2019-05-17T10:26:35.852Z,13.48
2019-05-17T10:31:39.708Z,12.53
2019-05-17T10:36:41.539Z,12.45
2019-05-17T10:41:43.291Z,11.60
2019-05-17T10:46:45.012Z,11.45
2019-05-17T10:51:49.250Z,12.00
2019-05-17T10:56:50.634Z,11.63
2019-05-17T11:01:54.905Z,10.30
2019-05-17T11:06:56.717Z,9.75
2019-05-17T11:11:58.395Z,8.75
2019-05-17T11:17:00.709Z,8.28
2019-05-17T11:22:02.436Z,6.95
2019-05-17T11:27:04.230Z,6.55
2019-05-17T11:32:05.911Z,6.72
2019-05-17T11:37:08.048Z,5.83
2019-05-17T11:42:09.741Z,5.53
2019-05-17T11:47:11.420Z,5.30
2019-05-17T11:52:13.076Z,4.50
2019-05-17T11:57:14.907Z,5.05
2019-05-17T12:02:16.969Z,4.80
2019-05-17T12:07:19.078Z,4.92
2019-05-17T12:12:20.759Z,4.75
2019-05-17T12:17:22.352Z,5.35
2019-05-17T12:22:24.291Z,4.95
2019-05-17T12:27:26.122Z,4.67
2019-05-17T12:32:27.871Z,4.47
2019-05-17T12:37:30.579Z,5.22
2019-05-17T12:42:32.288Z,5.42
2019-05-17T12:47:33.999Z,4.58
2019-05-17T12:52:37.748Z,4.60
2019-05-17T12:57:39.434Z,5.45
2019-05-17T13:06:32.376Z,4.87
2019-05-17T13:11:34.079Z,5.33
2019-05-17T14:36:05.283Z,5.25
2019-05-17T14:41:08.772Z,5.42
2019-05-17T14:46:11.251Z,5.20
2019-05-17T14:51:13.008Z,5.40
2019-05-17T14:56:15.029Z,4.67
2019-05-17T15:01:16.767Z,4.50
2019-05-17T15:06:18.435Z,4.55
2019-05-17T15:11:20.480Z,4.03
2019-05-17T15:16:22.556Z,4.53
2019-05-17T15:21:24.343Z,3.83
2019-05-17T15:26:26.257Z,3.83
2019-05-17T15:31:28.283Z,4.40
2019-05-17T15:36:30.048Z,4.05
2019-05-17T15:41:31.757Z,4.08
2019-05-17T15:46:33.493Z,3.83
2019-05-17T16:00:41.825Z,3.70
2019-05-17T16:05:43.735Z,3.25
2019-05-17T16:10:45.539Z,3.67
2019-05-17T16:24:27.080Z,3.20
2019-05-17T16:29:35.892Z,3.58
2019-05-17T16:39:39.916Z,3.10
2019-05-17T16:56:25.816Z,3.17
2019-05-17T17:01:27.573Z,2.95
2019-05-17T17:06:29.343Z,3.17
2019-05-17T17:11:31.513Z,3.05
2019-05-17T17:16:33.229Z,2.90
2019-05-17T17:21:35.042Z,3.12
2019-05-17T17:26:36.735Z,2.85
2019-05-17T17:31:38.576Z,3.33
2019-05-17T17:43:36.392Z,3.40
2019-05-17T17:48:38.164Z,3.45
2019-05-17T17:56:16.339Z,3.77
2019-05-17T18:01:18.081Z,3.40
2019-05-17T18:06:20.164Z,3.60
2019-05-17T18:11:21.922Z,3.62
2019-05-17T18:16:23.664Z,3.55
2019-05-17T18:22:31.140Z,3.60
2019-05-17T18:28:27.231Z,3.40
2019-05-17T18:33:29.134Z,4.65
2019-05-17T18:38:31.282Z,4.03
2019-05-17T18:43:33.348Z,3.70
2019-05-17T18:48:35.179Z,3.77
2019-05-17T18:53:37.053Z,4.60
2019-05-17T18:58:39.365Z,4.33
2019-05-17T19:03:41.104Z,5.10
2019-05-17T19:08:43.014Z,4.30
2019-05-17T19:13:45.020Z,5.05
2019-05-17T19:18:46.881Z,4.20
2019-05-17T19:23:48.564Z,5.30
2019-05-17T19:28:50.834Z,4.58
2019-05-17T19:33:52.535Z,5.10
2019-05-17T19:38:54.453Z,5.30
2019-05-17T19:43:56.149Z,6.00
2019-05-17T19:48:58.563Z,5.47
2019-05-17T19:54:01.214Z,4.67
2019-05-17T19:59:02.963Z,5.37
2019-05-17T20:04:04.972Z,4.67
2019-05-17T20:09:07.183Z,5.05
2019-05-17T20:14:08.954Z,5.30
2019-05-17T20:19:10.689Z,5.05
2019-05-17T20:24:12.397Z,5.37
2019-05-17T20:29:14.193Z,6.08
2019-05-17T20:34:15.921Z,5.80
2019-05-17T20:39:17.671Z,5.25
2019-05-17T20:44:22.844Z,5.37
2019-05-17T20:49:24.669Z,4.70
2019-05-17T20:54:26.433Z,4.17
2019-05-17T20:59:28.210Z,4.37
2019-05-17T21:04:29.992Z,4.80
2019-05-17T21:09:32.142Z,4.78
2019-05-17T21:14:33.959Z,4.80
2019-05-17T21:19:35.762Z,4.75
2019-05-17T21:24:37.488Z,4.67
2019-05-17T21:29:39.608Z,4.83
2019-05-17T21:34:41.374Z,4.80
2019-05-17T21:39:43.123Z,5.25
2019-05-17T21:44:44.874Z,4.85
2019-05-17T21:49:46.602Z,5.00
2019-05-17T21:54:48.411Z,5.10
2019-05-17T21:59:50.099Z,5.03
2019-05-17T22:04:51.741Z,4.47
2019-05-17T22:09:53.695Z,5.28
2019-05-17T22:14:55.484Z,5.20
2019-05-17T22:19:57.228Z,5.47
2019-05-17T22:24:58.915Z,5.50
2019-05-17T22:30:00.679Z,5.42
2019-05-17T22:35:02.385Z,5.45
2019-05-17T22:40:04.399Z,5.05
2019-05-17T22:45:06.139Z,5.55
2019-05-17T22:50:08.184Z,4.90
2019-05-17T22:55:09.908Z,4.72
2019-05-17T23:00:11.711Z,4.80
2019-05-17T23:05:13.531Z,4.87
2019-05-17T23:10:15.284Z,5.00
2019-05-17T23:15:17.370Z,5.25
2019-05-17T23:20:19.124Z,4.33
2019-05-17T23:25:20.803Z,4.40
2019-05-17T23:30:22.592Z,4.30
2019-05-17T23:35:24.345Z,5.00
2019-05-17T23:40:26.142Z,4.50
2019-05-17T23:45:27.820Z,4.28
2019-05-17T23:50:29.527Z,4.47
2019-05-17T23:55:31.293Z,4.80
